Allenspark, Colorado
Current Conditions -  °F | °C
As of 12:35 PM on Wednesday 17 Dec 2014 (Local Time) from KBDU Reporting Station
Scattered Clouds Scattered Clouds  
Wind Chill: 43°   Ceiling: Unl
Heat Index: 43°   Visibility: 10mi
Dew Point: 25°   Wind: 3mph
Humidity: 49%   Direction: 110°ESE
Pressure: 29.9"   Gusts: NA
Location:  40.19°N, 105.53°W
Report Text: KBDU 171935Z AUTO 11003KT 10SM SCT080 06/M04 A2990 RMK AO2
Loading
Personal Weather Stations






























Interactive Weather Map New forecast layout! Learn more

10-Day Weather Forecast

Advertisements
Track Severe Weather on mobile